Time;durP1;ratioP1;P1;durP2;ratioP2;P2;SDS_P1;SDS_P2;PMS_P1;PMS_P2;Temp;Humidity;BMP_temperature;BMP_pressure;BME280_temperature;BME280_humidity;BME280_pressure;Samples;Min_cycle;Max_cycle;Signal;HPM_P1;HPM_P2
2023/01/16 07:03:44;;;;;;;4.45;2.95;;;6.60;99.90;;;;;;5704019;23;20037;-77
2023/01/16 07:06:12;;;;;;;1.13;0.70;;;6.60;99.90;;;;;;4889989;29;20052;-77
2023/01/16 07:08:39;;;;;;;3.40;0.70;;;6.70;99.90;;;;;;4878245;29;20053;-77
2023/01/16 07:11:06;;;;;;;2.03;0.60;;;6.70;99.90;;;;;;4873937;29;20045;-77
2023/01/16 07:13:34;;;;;;;1.38;0.60;;;6.70;99.90;;;;;;4892420;29;20061;-77
2023/01/16 07:24:23;;;;;;;2.90;0.60;;;6.80;99.90;;;;;;4884972;29;20059;-77
2023/01/16 07:26:57;;;;;;;1.38;0.50;;;6.80;99.90;;;;;;4884009;29;20156;-76
2023/01/16 07:29:25;;;;;;;1.05;0.73;;;6.80;99.90;;;;;;4886634;29;20080;-76
2023/01/16 07:31:52;;;;;;;0.70;0.60;;;6.80;99.90;;;;;;4879884;29;20145;-76
2023/01/16 07:34:19;;;;;;;0.80;0.50;;;6.80;99.90;;;;;;4870921;29;20056;-76
2023/01/16 07:36:45;;;;;;;0.68;0.57;;;6.80;99.90;;;;;;4888149;29;20055;-76
2023/01/16 07:39:12;;;;;;;2.17;0.60;;;6.90;99.90;;;;;;4879941;29;20052;-76
2023/01/16 07:41:39;;;;;;;0.75;0.52;;;6.90;99.90;;;;;;4890854;29;20055;-78
2023/01/16 07:44:22;;;;;;;2.15;0.60;;;6.90;99.90;;;;;;4889450;29;20064;-76
2023/01/16 07:46:49;;;;;;;0.93;0.50;;;6.90;99.90;;;;;;4887074;29;20459;-76
2023/01/16 07:49:16;;;;;;;0.50;0.50;;;6.90;99.90;;;;;;4891031;29;20048;-77
2023/01/16 07:51:42;;;;;;;1.05;0.57;;;6.90;99.90;;;;;;4890807;29;20066;-76
2023/01/16 07:54:09;;;;;;;0.57;0.50;;;7.00;99.90;;;;;;4884726;29;20045;-77
2023/01/16 07:56:36;;;;;;;0.95;0.52;;;7.00;99.90;;;;;;4891027;29;20128;-77
2023/01/16 07:59:02;;;;;;;2.05;0.80;;;7.00;99.90;;;;;;4889447;29;20056;-78
2023/01/16 08:01:29;;;;;;;2.63;0.50;;;7.10;99.90;;;;;;4890281;29;20052;-76
2023/01/16 08:03:56;;;;;;;0.63;0.60;;;7.10;99.90;;;;;;4889592;29;20483;-76
2023/01/16 08:06:23;;;;;;;1.33;0.60;;;7.10;99.90;;;;;;4890584;29;20053;-77
2023/01/16 08:08:50;;;;;;;2.05;0.60;;;7.20;99.90;;;;;;4874216;29;20064;-76
2023/01/16 08:11:35;;;;;;;0.75;0.63;;;7.20;99.90;;;;;;4885503;29;20057;-76
2023/01/16 08:14:03;;;;;;;1.45;0.40;;;7.20;99.90;;;;;;4880435;29;20132;-77
2023/01/16 08:16:30;;;;;;;1.85;1.13;;;7.30;99.90;;;;;;4869484;29;20051;-76
2023/01/16 08:18:57;;;;;;;1.55;0.60;;;7.30;99.90;;;;;;4889862;29;20049;-77
2023/01/16 08:21:24;;;;;;;0.65;0.55;;;7.30;99.90;;;;;;4889553;29;20045;-76
2023/01/16 08:23:51;;;;;;;0.60;0.60;;;7.40;99.90;;;;;;4890122;29;20071;-76
2023/01/16 08:26:18;;;;;;;2.03;0.73;;;7.40;99.90;;;;;;4889863;29;20076;-76
2023/01/16 08:28:44;;;;;;;1.55;0.68;;;7.40;99.90;;;;;;4889893;29;20132;-76
2023/01/16 08:31:13;;;;;;;0.90;0.50;;;7.40;99.90;;;;;;4889369;29;20048;-80
2023/01/16 08:33:42;;;;;;;0.60;0.60;;;7.40;99.90;;;;;;4891062;29;20092;-77
2023/01/16 08:36:11;;;;;;;0.80;0.40;;;7.40;99.90;;;;;;4888277;29;20472;-77
2023/01/16 08:38:38;;;;;;;0.80;0.60;;;7.40;99.90;;;;;;4882557;29;20092;-77
2023/01/16 08:51:21;;;;;;;2.15;0.65;;;7.40;99.90;;;;;;4885565;29;20052;-76
2023/01/16 08:52:08;;;;;;;1.30;0.80;;;7.40;99.90;;;;;;4888505;29;20570;-77
2023/01/16 08:54:35;;;;;;;0.65;0.57;;;7.30;99.90;;;;;;4891249;29;20048;-77
2023/01/16 08:57:01;;;;;;;0.95;0.60;;;7.40;99.90;;;;;;4889214;29;20040;-78
2023/01/16 08:59:33;;;;;;;1.65;0.90;;;7.30;99.90;;;;;;4879444;29;20056;-76
2023/01/16 09:02:05;;;;;;;1.42;0.90;;;7.30;99.90;;;;;;4889637;29;20604;-78
2023/01/16 09:04:34;;;;;;;3.28;0.98;;;7.30;99.90;;;;;;4888858;29;20136;-78
2023/01/16 09:07:01;;;;;;;1.95;0.82;;;7.30;99.90;;;;;;4889600;29;20052;-77
2023/01/16 09:09:29;;;;;;;2.00;0.70;;;7.30;99.90;;;;;;4870946;29;20139;-77
2023/01/16 09:14:42;;;;;;;0.80;0.60;;;7.30;99.90;;;;;;4883621;29;20053;-77
2023/01/16 09:17:09;;;;;;;0.30;0.30;;;7.20;99.90;;;;;;4885375;29;20598;-77
2023/01/16 09:19:36;;;;;;;0.57;0.40;;;7.20;99.90;;;;;;4879167;29;20044;-77
2023/01/16 09:22:07;;;;;;;0.60;0.43;;;7.20;99.90;;;;;;4888029;29;20510;-77
2023/01/16 09:24:34;;;;;;;0.55;0.30;;;7.20;99.90;;;;;;4893225;29;20139;-81
2023/01/16 09:27:02;;;;;;;0.77;0.60;;;7.30;99.90;;;;;;4886507;29;20460;-79
2023/01/16 09:29:29;;;;;;;0.77;0.50;;;7.30;99.90;;;;;;4883134;29;20049;-78
2023/01/16 09:31:56;;;;;;;1.75;0.30;;;7.30;99.90;;;;;;4881778;29;20057;-79
2023/01/16 09:34:23;;;;;;;0.20;0.20;;;7.30;99.90;;;;;;4888523;29;20438;-78
2023/01/16 09:36:50;;;;;;;3.30;0.40;;;7.30;99.90;;;;;;4884920;29;20084;-78
2023/01/16 09:39:17;;;;;;;0.85;0.30;;;7.30;99.90;;;;;;4871090;29;20049;-78
2023/01/16 09:44:51;;;;;;;0.35;0.30;;;7.40;99.90;;;;;;4892274;29;20510;-79
2023/01/16 09:47:22;;;;;;;0.43;0.43;;;7.40;99.90;;;;;;4877239;29;20581;-78
2023/01/16 09:49:57;;;;;;;0.22;0.20;;;7.40;99.90;;;;;;4888584;29;20515;-79
2023/01/16 09:58:35;;;;;;;0.15;0.15;;;7.40;99.90;;;;;;4885365;29;20048;-77
2023/01/16 10:01:22;;;;;;;0.68;0.20;;;7.50;99.90;;;;;;4892053;29;20044;-78
2023/01/16 10:03:49;;;;;;;0.30;0.30;;;7.50;99.90;;;;;;4890076;29;20392;-78
2023/01/16 10:06:30;;;;;;;1.95;0.50;;;7.50;99.90;;;;;;4892276;29;20139;-78
2023/01/16 10:09:19;;;;;;;1.35;0.50;;;7.50;99.90;;;;;;4894683;29;20057;-78
2023/01/16 10:11:57;;;;;;;1.98;0.40;;;7.50;99.90;;;;;;4876379;29;20084;-79
2023/01/16 10:14:50;;;;;;;0.47;0.40;;;7.50;99.90;;;;;;4892996;29;20135;-78
2023/01/16 10:17:37;;;;;;;1.38;0.40;;;7.50;99.90;;;;;;4881974;29;20127;-78
2023/01/16 10:20:09;;;;;;;0.30;0.30;;;7.50;99.90;;;;;;4894830;29;20139;-79
2023/01/16 10:22:45;;;;;;;0.70;0.40;;;7.50;99.90;;;;;;4869186;29;20048;-78
2023/01/16 10:25:19;;;;;;;0.30;0.30;;;7.50;99.90;;;;;;4886459;29;20098;-77
2023/01/16 10:28:04;;;;;;;0.40;0.30;;;7.50;99.90;;;;;;4882803;29;20057;-78
2023/01/16 10:30:44;;;;;;;0.95;0.43;;;7.50;99.90;;;;;;4880665;29;20498;-77
2023/01/16 10:33:22;;;;;;;0.55;0.20;;;7.50;99.90;;;;;;4882802;29;20056;-78
2023/01/16 10:35:51;;;;;;;0.63;0.30;;;7.50;99.90;;;;;;4893973;29;20045;-78
2023/01/16 10:38:40;;;;;;;0.20;0.20;;;7.60;99.90;;;;;;4893148;29;20052;-78
2023/01/16 10:49:55;;;;;;;0.20;0.20;;;7.60;99.90;;;;;;4887779;29;20060;-78
2023/01/16 10:52:24;;;;;;;0.20;0.20;;;7.60;99.90;;;;;;4889473;29;20507;-78
2023/01/16 10:54:53;;;;;;;0.25;0.25;;;7.70;99.90;;;;;;4892524;29;20069;-78
2023/01/16 10:57:21;;;;;;;0.20;0.20;;;7.70;99.90;;;;;;4888514;29;20052;-78
2023/01/16 10:59:51;;;;;;;0.75;0.20;;;7.80;99.90;;;;;;4879184;29;20049;-79
2023/01/16 11:02:41;;;;;;;0.22;0.20;;;7.80;99.90;;;;;;4894252;29;20131;-78
2023/01/16 11:05:23;;;;;;;;;;;7.80;99.90;;;;;;4887494;29;20053;-79
2023/01/16 11:07:54;;;;;;;0.52;0.30;;;7.80;99.90;;;;;;4892863;29;19950;-79
2023/01/16 11:10:21;;;;;;;0.30;0.30;;;7.90;99.90;;;;;;4896042;29;20054;-79
2023/01/16 11:18:28;;;;;;;0.57;0.50;;;7.90;99.90;;;;;;4896208;29;20049;-78
2023/01/16 11:21:28;;;;;;;0.70;0.40;;;8.00;99.90;;;;;;4880201;29;20124;-78
2023/01/16 11:24:16;;;;;;;1.45;0.40;;;8.10;99.90;;;;;;4893890;29;20049;-77
2023/01/16 11:26:51;;;;;;;0.35;0.30;;;8.10;99.90;;;;;;4890951;29;20052;-77
2023/01/16 11:29:19;;;;;;;0.30;0.30;;;8.10;99.90;;;;;;4876098;29;20684;-77
2023/01/16 11:31:54;;;;;;;1.48;0.60;;;8.10;99.90;;;;;;4892398;29;20398;-79
2023/01/16 11:34:25;;;;;;;0.60;0.40;;;8.20;99.90;;;;;;4889554;29;20108;-78
2023/01/16 11:36:56;;;;;;;1.60;0.50;;;8.20;99.90;;;;;;4892704;29;20057;-78
2023/01/16 11:39:26;;;;;;;0.25;0.25;;;8.20;99.90;;;;;;4889402;29;20045;-78
2023/01/16 11:41:54;;;;;;;;;;;8.30;99.90;;;;;;4889864;29;20049;-79
2023/01/16 11:47:23;;;;;;;0.20;0.20;;;8.30;99.90;;;;;;4894756;29;20059;-79
2023/01/16 11:49:53;;;;;;;0.20;0.20;;;8.40;99.90;;;;;;4888757;29;20049;-78
2023/01/16 11:52:28;;;;;;;0.20;0.20;;;8.40;99.90;;;;;;4891848;29;20151;-79
2023/01/16 11:54:56;;;;;;;1.77;0.40;;;8.50;99.90;;;;;;4875649;29;20072;-79
2023/01/16 11:57:48;;;;;;;0.57;0.20;;;8.50;99.90;;;;;;4887748;29;20061;-77
2023/01/16 12:00:30;;;;;;;2.10;0.60;;;8.40;99.90;;;;;;4874190;29;20128;-79
2023/01/16 12:03:32;;;;;;;0.28;0.20;;;8.40;99.90;;;;;;4896401;29;20407;-77
2023/01/16 12:06:26;;;;;;;0.28;0.28;;;8.40;99.90;;;;;;4888748;29;20085;-78
2023/01/16 12:09:15;;;;;;;0.30;0.30;;;8.40;99.90;;;;;;4888106;29;20060;-78
2023/01/16 12:11:45;;;;;;;0.20;0.20;;;8.40;99.90;;;;;;4891605;29;20065;-78
2023/01/16 12:14:26;;;;;;;0.65;0.30;;;8.40;99.90;;;;;;4889638;29;20300;-78
2023/01/16 12:17:14;;;;;;;0.20;0.20;;;8.30;99.90;;;;;;4890813;29;20083;-78
2023/01/16 12:20:02;;;;;;;0.57;0.20;;;8.30;99.90;;;;;;4893669;29;20048;-78
2023/01/16 12:22:41;;;;;;;0.40;0.30;;;8.20;99.90;;;;;;4893208;29;20051;-77
2023/01/16 12:25:38;;;;;;;0.88;0.60;;;8.20;99.90;;;;;;4889481;29;20061;-78
2023/01/16 12:28:08;;;;;;;0.90;0.65;;;8.30;99.90;;;;;;4888611;29;20048;-78
2023/01/16 12:31:10;;;;;;;1.80;0.60;;;8.30;99.90;;;;;;4890510;29;20045;-78
2023/01/16 12:34:06;;;;;;;0.40;0.32;;;8.20;99.90;;;;;;4885592;29;20067;-78
2023/01/16 12:37:04;;;;;;;0.40;0.30;;;8.20;99.90;;;;;;4852083;29;20053;-80
2023/01/16 12:39:53;;;;;;;0.45;0.30;;;8.10;99.90;;;;;;4889454;29;20435;-78
2023/01/16 12:45:55;;;;;;;0.32;0.28;;;7.90;99.90;;;;;;4897030;29;20060;-77
2023/01/16 12:48:40;;;;;;;0.85;0.32;;;7.90;99.90;;;;;;4892186;29;20091;-78
2023/01/16 12:51:34;;;;;;;0.47;0.47;;;7.90;99.90;;;;;;4886806;29;20051;-77
2023/01/16 12:54:24;;;;;;;0.60;0.30;;;7.90;99.90;;;;;;4887518;29;20056;-77
2023/01/16 12:57:19;;;;;;;0.38;0.30;;;8.00;99.90;;;;;;4888401;29;20056;-77
2023/01/16 12:59:56;;;;;;;0.40;0.40;;;8.00;99.90;;;;;;4885869;29;20075;-77
2023/01/16 13:03:00;;;;;;;0.57;0.30;;;8.00;99.90;;;;;;4889378;29;20059;-78
2023/01/16 13:05:36;;;;;;;0.68;0.50;;;8.10;99.90;;;;;;4874598;29;20144;-77
2023/01/16 13:08:33;;;;;;;0.43;0.22;;;8.10;99.90;;;;;;4888477;29;20053;-77
2023/01/16 13:14:08;;;;;;;0.20;0.20;;;8.20;99.90;;;;;;4891764;29;20048;-76
2023/01/16 13:17:05;;;;;;;0.22;0.22;;;8.30;99.90;;;;;;4886602;29;20049;-78
2023/01/16 13:19:37;;;;;;;0.40;0.40;;;8.30;99.90;;;;;;4881894;29;20045;-76
2023/01/16 13:22:25;;;;;;;0.77;0.40;;;8.30;99.90;;;;;;4890509;29;20056;-77
2023/01/16 13:25:14;;;;;;;0.20;0.20;;;8.30;99.90;;;;;;4881419;29;20059;-77
2023/01/16 13:27:47;;;;;;;0.47;0.30;;;8.30;99.90;;;;;;4886482;29;20053;-76
2023/01/16 13:30:18;;;;;;;0.50;0.50;;;8.30;99.90;;;;;;4879086;29;20056;-78
2023/01/16 13:33:01;;;;;;;0.60;0.55;;;8.30;99.90;;;;;;4887433;29;20056;-77
2023/01/16 13:35:41;;;;;;;1.85;0.30;;;8.40;99.90;;;;;;4889821;29;20120;-77
2023/01/16 13:38:27;;;;;;;1.98;0.20;;;8.40;99.90;;;;;;4890280;29;20048;-78
2023/01/16 13:41:06;;;;;;;0.25;0.20;;;8.40;99.90;;;;;;4892668;29;20049;-76
2023/01/16 13:46:25;;;;;;;1.17;0.40;;;8.40;99.90;;;;;;4884956;29;20059;-76
2023/01/16 13:48:53;;;;;;;0.20;0.20;;;8.30;99.90;;;;;;4886983;29;20045;-76
2023/01/16 13:51:25;;;;;;;0.40;0.40;;;8.30;99.90;;;;;;4879228;29;20072;-77
2023/01/16 13:53:59;;;;;;;0.47;0.32;;;8.40;99.90;;;;;;4884834;29;20059;-77
2023/01/16 13:56:28;;;;;;;0.57;0.38;;;8.40;99.90;;;;;;4890553;29;20049;-77
2023/01/16 13:59:05;;;;;;;0.55;0.30;;;8.30;99.90;;;;;;4890259;29;20056;-78
2023/01/16 14:01:39;;;;;;;1.70;0.40;;;8.40;99.90;;;;;;4892976;29;20052;-78
2023/01/16 14:04:15;;;;;;;0.73;0.50;;;8.40;99.90;;;;;;4889234;29;20538;-77
2023/01/16 14:09:04;;;;;;;0.30;0.30;;;8.40;99.90;;;;;;4891085;29;20052;-78
2023/01/16 14:10:03;;;;;;;2.05;0.60;;;8.40;99.90;;;;;;4886001;29;20060;-78
2023/01/16 14:13:13;;;;;;;1.25;0.50;;;8.40;99.90;;;;;;4884258;29;20056;-79
2023/01/16 14:16:30;;;;;;;0.40;0.40;;;8.40;99.90;;;;;;4830523;29;20049;-78
2023/01/16 14:19:21;;;;;;;0.40;0.40;;;8.40;99.90;;;;;;4872269;29;20476;-77
2023/01/16 14:24:45;;;;;;;0.45;0.40;;;8.30;99.90;;;;;;4888836;29;20071;-78
2023/01/16 14:27:15;;;;;;;6.18;0.70;;;8.10;99.90;;;;;;4890954;29;20044;-78
2023/01/16 14:29:55;;;;;;;1.73;0.60;;;7.90;99.90;;;;;;4886649;29;20076;-78
2023/01/16 14:32:27;;;;;;;0.80;0.50;;;7.80;99.90;;;;;;4890892;29;20045;-77
2023/01/16 14:35:09;;;;;;;1.05;0.73;;;7.70;99.90;;;;;;4873344;29;20060;-79
2023/01/16 14:37:39;;;;;;;1.05;0.63;;;7.70;99.90;;;;;;4887124;29;20049;-77
2023/01/16 14:40:09;;;;;;;1.67;1.10;;;7.70;99.90;;;;;;4892104;29;20045;-78
2023/01/16 14:56:43;;;;;;;1.45;0.38;;;7.50;99.90;;;;;;4892309;29;20138;-78
2023/01/16 14:59:33;;;;;;;2.25;0.50;;;7.50;99.90;;;;;;4881468;29;20058;-77
2023/01/16 15:02:21;;;;;;;;;;;7.50;99.90;;;;;;4892820;29;20057;-78
2023/01/16 15:04:55;;;;;;;1.08;0.68;;;7.40;99.90;;;;;;4868752;29;19959;-79
2023/01/16 15:07:48;;;;;;;1.30;0.82;;;7.40;99.90;;;;;;4878726;29;20421;-78
2023/01/16 15:10:17;;;;;;;0.55;0.40;;;7.30;99.90;;;;;;4877115;29;20049;-78
2023/01/16 15:12:44;;;;;;;1.20;0.60;;;7.30;99.90;;;;;;4889883;29;20056;-78
2023/01/16 15:15:29;;;;;;;0.90;0.55;;;7.20;99.90;;;;;;4893156;29;20057;-77
2023/01/16 15:23:36;;;;;;;1.13;0.50;;;7.20;99.90;;;;;;4889660;29;20479;-77
2023/01/16 15:26:23;;;;;;;2.10;0.80;;;7.10;99.90;;;;;;4893654;29;20061;-77
2023/01/16 15:29:00;;;;;;;0.77;0.65;;;7.10;99.90;;;;;;4889064;29;20056;-77
2023/01/16 15:31:44;;;;;;;0.65;0.50;;;7.20;99.90;;;;;;4885754;29;20067;-77
2023/01/16 15:34:21;;;;;;;0.77;0.57;;;7.10;99.90;;;;;;4876570;29;20053;-77
2023/01/16 15:36:50;;;;;;;2.80;0.40;;;7.10;99.90;;;;;;4889592;29;20049;-77
2023/01/16 15:39:22;;;;;;;1.13;0.55;;;7.10;99.90;;;;;;4891054;29;20071;-76
2023/01/16 15:48:10;;;;;;;1.70;0.68;;;7.00;99.90;;;;;;4887519;29;20053;-77
2023/01/16 15:50:46;;;;;;;0.70;0.57;;;7.00;99.90;;;;;;4875993;29;20045;-77
2023/01/16 15:53:13;;;;;;;1.75;0.60;;;6.90;99.90;;;;;;4886809;29;20087;-77
2023/01/16 15:55:47;;;;;;;0.75;0.60;;;6.80;99.90;;;;;;4883542;29;20053;-77
2023/01/16 15:58:17;;;;;;;4.03;0.98;;;6.70;99.90;;;;;;4891136;29;20415;-77
2023/01/16 16:00:44;;;;;;;0.93;0.60;;;6.80;99.90;;;;;;4891664;29;20064;-78
2023/01/16 16:03:23;;;;;;;2.70;0.80;;;6.70;99.90;;;;;;4886185;29;20052;-76
2023/01/16 16:05:52;;;;;;;2.30;0.70;;;6.60;99.90;;;;;;4892476;29;20056;-77
2023/01/16 16:08:31;;;;;;;1.75;0.85;;;6.50;99.90;;;;;;4891745;29;20423;-76
2023/01/16 16:13:46;;;;;;;2.30;1.42;;;6.40;99.90;;;;;;4910813;29;20037;-77
2023/01/16 16:19:08;;;;;;;1.05;0.60;;;6.40;99.90;;;;;;4914236;29;20059;-78
2023/01/16 16:24:35;;;;;;;2.42;1.13;;;6.30;99.90;;;;;;4897351;29;20040;-78
2023/01/16 16:27:13;;;;;;;2.40;0.95;;;6.30;99.90;;;;;;4894251;29;20060;-77
2023/01/16 16:29:40;;;;;;;2.78;1.40;;;6.30;99.90;;;;;;4878813;29;20063;-77
2023/01/16 16:32:14;;;;;;;2.40;0.85;;;6.30;99.90;;;;;;4889522;29;20426;-77
2023/01/16 16:34:56;;;;;;;2.40;0.98;;;6.30;99.90;;;;;;4890378;29;20059;-76
2023/01/16 16:37:24;;;;;;;5.85;1.15;;;6.30;99.90;;;;;;4890406;29;20056;-76
2023/01/16 16:40:13;;;;;;;3.35;1.42;;;6.20;99.90;;;;;;4891037;29;20061;-76
2023/01/16 16:42:44;;;;;;;3.80;1.30;;;6.30;99.90;;;;;;4890325;29;20127;-77
2023/01/16 16:45:15;;;;;;;5.63;1.85;;;6.20;99.90;;;;;;4888143;29;20063;-76
2023/01/16 16:47:46;;;;;;;3.78;1.73;;;6.30;99.90;;;;;;4885308;29;20062;-78
2023/01/16 16:50:38;;;;;;;3.45;1.30;;;6.30;99.90;;;;;;4876094;29;20419;-78
2023/01/16 16:53:12;;;;;;;3.10;1.40;;;6.30;99.90;;;;;;4880369;29;20049;-77
2023/01/16 16:55:44;;;;;;;3.45;1.42;;;6.40;99.90;;;;;;4886155;29;20060;-76
2023/01/16 16:58:21;;;;;;;5.00;1.30;;;6.40;99.90;;;;;;4886351;29;20533;-77
2023/01/16 17:00:48;;;;;;;2.15;1.23;;;6.40;99.90;;;;;;4892480;29;20053;-77
2023/01/16 17:03:26;;;;;;;3.83;2.60;;;6.40;99.90;;;;;;4890940;29;20525;-77
2023/01/16 17:05:54;;;;;;;4.63;1.80;;;6.50;99.90;;;;;;4893923;29;20052;-77
2023/01/16 17:08:29;;;;;;;4.85;1.70;;;6.50;99.90;;;;;;4888178;29;20562;-79
2023/01/16 17:10:56;;;;;;;3.85;1.25;;;6.50;99.90;;;;;;4888873;29;20057;-77
2023/01/16 17:13:24;;;;;;;3.67;0.82;;;6.60;99.90;;;;;;4884897;29;20053;-76
2023/01/16 17:15:55;;;;;;;1.15;0.63;;;6.50;99.90;;;;;;4885356;29;20546;-77
2023/01/16 17:18:26;;;;;;;4.07;0.80;;;6.50;99.90;;;;;;4885877;29;20057;-77
2023/01/16 17:20:54;;;;;;;1.00;0.73;;;6.50;99.90;;;;;;4886260;29;20044;-77
2023/01/16 17:23:23;;;;;;;2.08;1.00;;;6.50;99.90;;;;;;4888689;29;20140;-77
2023/01/16 17:25:50;;;;;;;1.77;0.73;;;6.60;99.90;;;;;;4879591;29;20136;-77
2023/01/16 17:28:17;;;;;;;1.52;1.00;;;6.60;99.90;;;;;;4890400;29;20066;-78
2023/01/16 17:30:44;;;;;;;7.00;1.42;;;6.60;99.90;;;;;;4873914;29;20053;-78
2023/01/16 17:33:10;;;;;;;4.93;2.35;;;6.60;99.90;;;;;;4887136;29;20048;-77
2023/01/16 17:35:39;;;;;;;2.55;1.25;;;6.60;99.90;;;;;;4893142;29;20045;-77
2023/01/16 17:38:14;;;;;;;1.42;0.90;;;6.60;99.90;;;;;;4887733;29;20511;-77
2023/01/16 17:40:41;;;;;;;3.40;1.10;;;6.60;99.90;;;;;;4877188;29;20053;-78
2023/01/16 17:46:10;;;;;;;1.55;1.00;;;6.60;99.90;;;;;;4889340;29;20059;-77
2023/01/16 17:48:37;;;;;;;3.65;1.45;;;6.60;99.90;;;;;;4877450;29;20105;-77
2023/01/16 17:51:04;;;;;;;1.98;1.17;;;6.50;99.90;;;;;;4890913;29;20052;-77
2023/01/16 17:53:31;;;;;;;7.90;3.33;;;6.50;99.90;;;;;;4871224;29;20478;-77
2023/01/16 17:56:01;;;;;;;5.15;3.28;;;6.50;99.90;;;;;;4888767;29;20136;-78
2023/01/16 18:01:18;;;;;;;6.88;2.80;;;6.50;99.90;;;;;;4889768;29;20132;-76
2023/01/16 18:03:58;;;;;;;5.55;2.00;;;6.50;99.90;;;;;;4869104;29;20055;-77
2023/01/16 18:06:25;;;;;;;5.20;1.83;;;6.50;99.90;;;;;;4873067;29;20049;-77
2023/01/16 18:08:53;;;;;;;4.03;1.70;;;6.40;99.90;;;;;;4887132;29;20063;-77
2023/01/16 18:22:36;;;;;;;2.30;0.73;;;6.40;99.90;;;;;;4916479;29;20111;-79
2023/01/16 18:25:05;;;;;;;3.58;1.48;;;6.00;99.90;;;;;;4920493;29;20054;-80
2023/01/16 18:27:31;;;;;;;3.28;1.02;;;6.00;99.90;;;;;;4920939;29;20107;-78
2023/01/16 18:30:00;;;;;;;0.77;0.77;;;5.80;99.90;;;;;;4901498;29;20083;-77
2023/01/16 18:32:28;;;;;;;2.28;0.82;;;5.80;99.90;;;;;;4901515;29;20651;-80
2023/01/16 18:35:00;;;;;;;1.45;0.82;;;5.50;99.90;;;;;;4908630;29;20048;-79
2023/01/16 18:37:33;;;;;;;1.60;0.90;;;5.50;99.90;;;;;;4916737;29;20048;-78
2023/01/16 19:02:43;;;;;;;1.83;1.10;;;5.30;99.90;;;;;;4922249;29;20613;-80
2023/01/16 19:05:11;;;;;;;1.90;1.00;;;5.30;99.90;;;;;;4918741;29;20052;-80
2023/01/16 19:07:43;;;;;;;3.85;0.70;;;5.20;99.90;;;;;;4922252;29;20052;-79
2023/01/16 19:10:21;;;;;;;4.00;0.98;;;5.10;99.90;;;;;;4919867;29;20058;-80
2023/01/16 19:12:49;;;;;;;2.88;2.00;;;5.00;99.90;;;;;;4926302;29;20054;-79
2023/01/16 19:15:17;;;;;;;3.88;1.00;;;5.10;99.90;;;;;;4918339;29;20053;-80
2023/01/16 19:17:45;;;;;;;1.10;0.80;;;5.00;99.90;;;;;;4916984;29;20084;-78
2023/01/16 19:20:14;;;;;;;1.38;1.10;;;5.00;99.90;;;;;;4900278;29;20067;-79
2023/01/16 19:22:41;;;;;;;3.72;1.55;;;5.00;99.90;;;;;;4919425;29;20498;-79
2023/01/16 19:25:07;;;;;;;1.85;1.05;;;5.00;99.90;;;;;;4924550;29;20052;-80
2023/01/16 19:27:34;;;;;;;3.30;1.40;;;5.00;99.90;;;;;;4926926;29;20044;-81
2023/01/16 19:30:01;;;;;;;3.58;1.73;;;4.90;99.90;;;;;;4924051;29;20512;-80
2023/01/16 19:32:28;;;;;;;2.70;1.27;;;4.90;99.90;;;;;;4912319;29;20064;-80
2023/01/16 19:34:54;;;;;;;3.05;0.88;;;4.80;99.90;;;;;;4922100;29;20044;-81
2023/01/16 19:37:22;;;;;;;2.80;1.20;;;4.90;99.90;;;;;;4915777;29;20052;-78
2023/01/16 19:39:49;;;;;;;1.40;0.80;;;4.90;99.90;;;;;;4905250;29;20052;-80
2023/01/16 19:47:46;;;;;;;2.30;0.95;;;4.90;99.90;;;;;;4914744;29;20059;-77
2023/01/16 19:50:13;;;;;;;1.20;0.80;;;4.90;99.90;;;;;;4898556;29;20131;-80
2023/01/16 19:52:40;;;;;;;1.52;0.90;;;4.90;99.90;;;;;;4937440;29;20056;-79
2023/01/16 19:55:07;;;;;;;1.75;0.63;;;4.90;99.90;;;;;;4936466;29;20055;-77
2023/01/16 19:57:34;;;;;;;1.73;0.80;;;4.80;99.90;;;;;;4935169;29;20046;-79
2023/01/16 20:00:00;;;;;;;0.82;0.80;;;4.90;99.90;;;;;;4937319;29;20047;-79
2023/01/16 20:02:30;;;;;;;3.65;1.05;;;4.90;99.90;;;;;;4937712;29;20052;-78
2023/01/16 20:04:57;;;;;;;1.05;0.95;;;4.90;99.90;;;;;;4926292;29;20107;-80
2023/01/16 20:07:24;;;;;;;2.88;1.58;;;4.90;99.90;;;;;;4934748;29;20052;-79
2023/01/16 20:09:50;;;;;;;2.60;1.08;;;4.90;99.90;;;;;;4930173;29;20063;-81
2023/01/16 20:12:23;;;;;;;3.08;1.67;;;4.80;99.90;;;;;;4933970;29;20066;-80
2023/01/16 20:14:51;;;;;;;4.38;0.95;;;4.80;99.90;;;;;;4917849;29;20123;-81
2023/01/16 20:17:18;;;;;;;1.48;0.90;;;4.80;99.90;;;;;;4919605;29;20054;-81
2023/01/16 20:19:45;;;;;;;2.65;1.25;;;4.70;99.90;;;;;;4923990;29;20450;-79
2023/01/16 20:22:12;;;;;;;2.00;0.73;;;4.70;99.90;;;;;;4938735;29;20518;-80
2023/01/16 20:24:48;;;;;;;2.17;0.77;;;4.80;99.90;;;;;;4939214;29;20048;-79
2023/01/16 20:27:16;;;;;;;1.00;0.68;;;4.80;99.90;;;;;;4920754;29;20059;-79
2023/01/16 20:29:46;;;;;;;2.35;0.88;;;4.80;99.90;;;;;;4922349;29;20081;-78
2023/01/16 20:32:13;;;;;;;1.53;0.83;;;4.70;99.90;;;;;;4939999;29;20060;-77
